sensor_id;sensor_type;location;lat;lon;timestamp;temperature;humidity
70166;SHT30;57541;47.408;18.822;2024-01-30T00:00:25;-2.09;98.62
70166;SHT30;57541;47.408;18.822;2024-01-30T00:00:57;-2.22;98.48
70166;SHT30;57541;47.408;18.822;2024-01-30T00:01:29;-2.45;98.59
70166;SHT30;57541;47.408;18.822;2024-01-30T00:02:01;-2.41;98.87
70166;SHT30;57541;47.408;18.822;2024-01-30T00:02:33;-2.29;98.85
70166;SHT30;57541;47.408;18.822;2024-01-30T00:03:05;-2.28;98.54
70166;SHT30;57541;47.408;18.822;2024-01-30T00:03:37;-2.39;98.67
70166;SHT30;57541;47.408;18.822;2024-01-30T00:04:08;-2.35;98.82
70166;SHT30;57541;47.408;18.822;2024-01-30T00:04:40;-2.35;98.87
70166;SHT30;57541;47.408;18.822;2024-01-30T00:05:12;-2.36;98.79
70166;SHT30;57541;47.408;18.822;2024-01-30T00:05:44;-2.29;98.71
70166;SHT30;57541;47.408;18.822;2024-01-30T00:06:19;-2.31;98.53
70166;SHT30;57541;47.408;18.822;2024-01-30T00:06:55;-2.31;98.43
70166;SHT30;57541;47.408;18.822;2024-01-30T00:07:27;-2.33;98.37
70166;SHT30;57541;47.408;18.822;2024-01-30T00:07:59;-2.43;98.42
70166;SHT30;57541;47.408;18.822;2024-01-30T00:08:31;-2.39;98.71
70166;SHT30;57541;47.408;18.822;2024-01-30T00:09:03;-2.36;98.83
70166;SHT30;57541;47.408;18.822;2024-01-30T00:09:34;-2.28;98.84
70166;SHT30;57541;47.408;18.822;2024-01-30T00:10:07;-2.22;98.77
70166;SHT30;57541;47.408;18.822;2024-01-30T00:10:39;-2.25;98.52
70166;SHT30;57541;47.408;18.822;2024-01-30T00:11:10;-2.18;98.49
70166;SHT30;57541;47.408;18.822;2024-01-30T00:11:42;-2.41;98.54
70166;SHT30;57541;47.408;18.822;2024-01-30T00:12:14;-2.43;98.84
70166;SHT30;57541;47.408;18.822;2024-01-30T00:12:46;-2.42;99.09
70166;SHT30;57541;47.408;18.822;2024-01-30T00:13:18;-2.45;99.11
70166;SHT30;57541;47.408;18.822;2024-01-30T00:13:52;-2.38;99.07
70166;SHT30;57541;47.408;18.822;2024-01-30T00:14:24;-2.45;98.89
70166;SHT30;57541;47.408;18.822;2024-01-30T00:14:56;-2.48;99.11
70166;SHT30;57541;47.408;18.822;2024-01-30T00:15:28;-2.54;99.28
70166;SHT30;57541;47.408;18.822;2024-01-30T00:15:59;-2.57;99.46
70166;SHT30;57541;47.408;18.822;2024-01-30T00:16:31;-2.60;99.65
70166;SHT30;57541;47.408;18.822;2024-01-30T00:17:03;-2.49;99.59
70166;SHT30;57541;47.408;18.822;2024-01-30T00:17:36;-2.45;99.33
70166;SHT30;57541;47.408;18.822;2024-01-30T00:18:08;-2.36;98.92
70166;SHT30;57541;47.408;18.822;2024-01-30T00:18:40;-2.35;98.59
70166;SHT30;57541;47.408;18.822;2024-01-30T00:19:12;-2.46;98.32
70166;SHT30;57541;47.408;18.822;2024-01-30T00:19:44;-2.49;97.99
70166;SHT30;57541;47.408;18.822;2024-01-30T00:20:16;-2.49;98.12
70166;SHT30;57541;47.408;18.822;2024-01-30T00:20:47;-2.53;98.38
70166;SHT30;57541;47.408;18.822;2024-01-30T00:21:20;-2.60;98.57
70166;SHT30;57541;47.408;18.822;2024-01-30T00:21:52;-2.50;98.58
70166;SHT30;57541;47.408;18.822;2024-01-30T00:22:24;-2.50;98.52
70166;SHT30;57541;47.408;18.822;2024-01-30T00:22:55;-2.53;98.38
70166;SHT30;57541;47.408;18.822;2024-01-30T00:23:27;-2.53;98.38
70166;SHT30;57541;47.408;18.822;2024-01-30T00:24:00;-2.56;98.47
70166;SHT30;57541;47.408;18.822;2024-01-30T00:24:32;-2.39;98.66
70166;SHT30;57541;47.408;18.822;2024-01-30T00:25:04;-2.32;98.46
70166;SHT30;57541;47.408;18.822;2024-01-30T00:25:36;-2.28;98.25
70166;SHT30;57541;47.408;18.822;2024-01-30T00:26:08;-2.35;98.14
70166;SHT30;57541;47.408;18.822;2024-01-30T00:26:40;-2.35;98.14
70166;SHT30;57541;47.408;18.822;2024-01-30T00:27:12;-2.41;97.90
70166;SHT30;57541;47.408;18.822;2024-01-30T00:27:44;-2.48;97.97
70166;SHT30;57541;47.408;18.822;2024-01-30T00:28:16;-2.48;98.30
70166;SHT30;57541;47.408;18.822;2024-01-30T00:28:48;-2.42;98.53
70166;SHT30;57541;47.408;18.822;2024-01-30T00:29:19;-2.35;98.62
70166;SHT30;57541;47.408;18.822;2024-01-30T00:29:51;-2.32;98.52
70166;SHT30;57541;47.408;18.822;2024-01-30T00:30:26;-2.32;98.30
70166;SHT30;57541;47.408;18.822;2024-01-30T00:30:58;-2.42;98.24
70166;SHT30;57541;47.408;18.822;2024-01-30T00:31:30;-2.56;98.61
70166;SHT30;57541;47.408;18.822;2024-01-30T00:32:02;-2.67;98.98
70166;SHT30;57541;47.408;18.822;2024-01-30T00:32:33;-2.73;99.45
70166;SHT30;57541;47.408;18.822;2024-01-30T00:33:05;-2.70;99.72
70166;SHT30;57541;47.408;18.822;2024-01-30T00:33:40;-2.59;99.71
70166;SHT30;57541;47.408;18.822;2024-01-30T00:34:12;-2.49;99.52
70166;SHT30;57541;47.408;18.822;2024-01-30T00:34:43;-2.43;99.28
70166;SHT30;57541;47.408;18.822;2024-01-30T00:35:15;-2.53;99.20
70166;SHT30;57541;47.408;18.822;2024-01-30T00:35:47;-2.57;99.49
70166;SHT30;57541;47.408;18.822;2024-01-30T00:36:19;-2.52;99.66
70166;SHT30;57541;47.408;18.822;2024-01-30T00:36:51;-2.49;99.54
70166;SHT30;57541;47.408;18.822;2024-01-30T00:37:23;-2.53;99.58
70166;SHT30;57541;47.408;18.822;2024-01-30T00:37:55;-2.53;99.37
70166;SHT30;57541;47.408;18.822;2024-01-30T00:38:26;-2.49;99.19
70166;SHT30;57541;47.408;18.822;2024-01-30T00:38:58;-2.45;99.31
70166;SHT30;57541;47.408;18.822;2024-01-30T00:39:30;-2.52;99.29
70166;SHT30;57541;47.408;18.822;2024-01-30T00:40:02;-2.53;99.19
70166;SHT30;57541;47.408;18.822;2024-01-30T00:40:34;-2.56;99.07
70166;SHT30;57541;47.408;18.822;2024-01-30T00:41:08;-2.49;99.10
70166;SHT30;57541;47.408;18.822;2024-01-30T00:41:40;-2.46;99.19
70166;SHT30;57541;47.408;18.822;2024-01-30T00:42:12;-2.43;99.15
70166;SHT30;57541;47.408;18.822;2024-01-30T00:42:44;-2.38;99.13
70166;SHT30;57541;47.408;18.822;2024-01-30T00:43:16;-2.52;98.92
70166;SHT30;57541;47.408;18.822;2024-01-30T00:43:48;-2.67;99.00
70166;SHT30;57541;47.408;18.822;2024-01-30T00:44:20;-2.57;99.05
70166;SHT30;57541;47.408;18.822;2024-01-30T00:44:52;-2.50;99.07
70166;SHT30;57541;47.408;18.822;2024-01-30T00:45:24;-2.42;99.10
70166;SHT30;57541;47.408;18.822;2024-01-30T00:45:55;-2.45;98.91
70166;SHT30;57541;47.408;18.822;2024-01-30T00:46:27;-2.49;98.77
70166;SHT30;57541;47.408;18.822;2024-01-30T00:46:59;-2.54;99.06
70166;SHT30;57541;47.408;18.822;2024-01-30T00:47:31;-2.56;98.94
70166;SHT30;57541;47.408;18.822;2024-01-30T00:48:05;-2.52;98.77
70166;SHT30;57541;47.408;18.822;2024-01-30T00:48:36;-2.50;98.80
70166;SHT30;57541;47.408;18.822;2024-01-30T00:49:08;-2.53;98.74
70166;SHT30;57541;47.408;18.822;2024-01-30T00:49:40;-2.54;98.29
70166;SHT30;57541;47.408;18.822;2024-01-30T00:50:12;-2.59;98.28
70166;SHT30;57541;47.408;18.822;2024-01-30T00:50:44;-2.57;98.39
70166;SHT30;57541;47.408;18.822;2024-01-30T00:51:16;-2.50;98.52
70166;SHT30;57541;47.408;18.822;2024-01-30T00:51:48;-2.50;98.64
70166;SHT30;57541;47.408;18.822;2024-01-30T00:52:20;-2.57;98.56
70166;SHT30;57541;47.408;18.822;2024-01-30T00:52:52;-2.54;98.55
70166;SHT30;57541;47.408;18.822;2024-01-30T00:53:23;-2.45;98.36
70166;SHT30;57541;47.408;18.822;2024-01-30T00:53:55;-2.50;98.30
70166;SHT30;57541;47.408;18.822;2024-01-30T00:54:27;-2.43;98.55
70166;SHT30;57541;47.408;18.822;2024-01-30T00:54:59;-2.45;98.50
70166;SHT30;57541;47.408;18.822;2024-01-30T00:55:31;-2.43;98.63
70166;SHT30;57541;47.408;18.822;2024-01-30T00:56:03;-2.49;98.59
70166;SHT30;57541;47.408;18.822;2024-01-30T00:56:35;-2.52;98.62
70166;SHT30;57541;47.408;18.822;2024-01-30T00:57:07;-2.63;98.75
70166;SHT30;57541;47.408;18.822;2024-01-30T00:57:39;-2.64;98.94
70166;SHT30;57541;47.408;18.822;2024-01-30T00:58:15;-2.63;99.07
70166;SHT30;57541;47.408;18.822;2024-01-30T00:58:46;-2.66;98.63
70166;SHT30;57541;47.408;18.822;2024-01-30T00:59:18;-2.74;98.67
70166;SHT30;57541;47.408;18.822;2024-01-30T00:59:50;-2.79;98.80
70166;SHT30;57541;47.408;18.822;2024-01-30T01:00:22;-2.74;98.90
70166;SHT30;57541;47.408;18.822;2024-01-30T01:01:00;-2.77;98.73
70166;SHT30;57541;47.408;18.822;2024-01-30T01:01:32;-2.73;98.98
70166;SHT30;57541;47.408;18.822;2024-01-30T01:02:04;-2.87;98.50
70166;SHT30;57541;47.408;18.822;2024-01-30T01:02:36;-2.85;98.82
70166;SHT30;57541;47.408;18.822;2024-01-30T01:03:08;-2.74;99.01
70166;SHT30;57541;47.408;18.822;2024-01-30T01:03:40;-2.72;98.78
70166;SHT30;57541;47.408;18.822;2024-01-30T01:04:16;-2.64;98.69
70166;SHT30;57541;47.408;18.822;2024-01-30T01:04:49;-2.60;98.41
70166;SHT30;57541;47.408;18.822;2024-01-30T01:05:21;-2.57;98.36
70166;SHT30;57541;47.408;18.822;2024-01-30T01:05:53;-2.67;98.44
70166;SHT30;57541;47.408;18.822;2024-01-30T01:06:25;-2.73;98.62
70166;SHT30;57541;47.408;18.822;2024-01-30T01:06:57;-2.79;98.50
70166;SHT30;57541;47.408;18.822;2024-01-30T01:07:28;-2.69;98.66
70166;SHT30;57541;47.408;18.822;2024-01-30T01:08:00;-2.77;98.68
70166;SHT30;57541;47.408;18.822;2024-01-30T01:08:32;-2.95;98.97
70166;SHT30;57541;47.408;18.822;2024-01-30T01:09:04;-2.98;99.51
70166;SHT30;57541;47.408;18.822;2024-01-30T01:09:36;-3.04;99.63
70166;SHT30;57541;47.408;18.822;2024-01-30T01:10:08;-2.95;99.76
70166;SHT30;57541;47.408;18.822;2024-01-30T01:10:40;-2.84;99.92
70166;SHT30;57541;47.408;18.822;2024-01-30T01:11:12;-2.88;99.42
70166;SHT30;57541;47.408;18.822;2024-01-30T01:11:43;-2.90;98.98
70166;SHT30;57541;47.408;18.822;2024-01-30T01:12:15;-2.88;98.85
70166;SHT30;57541;47.408;18.822;2024-01-30T01:12:48;-2.95;98.90
70166;SHT30;57541;47.408;18.822;2024-01-30T01:13:19;-2.90;99.14
70166;SHT30;57541;47.408;18.822;2024-01-30T01:13:51;-2.93;99.15
70166;SHT30;57541;47.408;18.822;2024-01-30T01:14:23;-2.94;99.31
70166;SHT30;57541;47.408;18.822;2024-01-30T01:14:55;-2.93;99.37
70166;SHT30;57541;47.408;18.822;2024-01-30T01:15:27;-2.84;99.42
70166;SHT30;57541;47.408;18.822;2024-01-30T01:16:01;-2.76;99.36
70166;SHT30;57541;47.408;18.822;2024-01-30T01:16:33;-2.80;99.11
70166;SHT30;57541;47.408;18.822;2024-01-30T01:17:05;-2.91;99.19
70166;SHT30;57541;47.408;18.822;2024-01-30T01:17:39;-2.77;99.38
70166;SHT30;57541;47.408;18.822;2024-01-30T01:18:11;-2.73;99.17
70166;SHT30;57541;47.408;18.822;2024-01-30T01:18:43;-2.83;99.10
70166;SHT30;57541;47.408;18.822;2024-01-30T01:19:15;-2.79;99.11
70166;SHT30;57541;47.408;18.822;2024-01-30T01:19:47;-2.81;99.01
70166;SHT30;57541;47.408;18.822;2024-01-30T01:20:19;-2.80;99.09
70166;SHT30;57541;47.408;18.822;2024-01-30T01:20:51;-2.83;99.20
70166;SHT30;57541;47.408;18.822;2024-01-30T01:21:23;-2.74;99.26
70166;SHT30;57541;47.408;18.822;2024-01-30T01:21:54;-2.74;99.06
70166;SHT30;57541;47.408;18.822;2024-01-30T01:22:26;-2.83;98.99
70166;SHT30;57541;47.408;18.822;2024-01-30T01:22:59;-2.97;98.83
70166;SHT30;57541;47.408;18.822;2024-01-30T01:23:30;-2.98;99.01
70166;SHT30;57541;47.408;18.822;2024-01-30T01:24:02;-2.95;99.03
70166;SHT30;57541;47.408;18.822;2024-01-30T01:24:35;-2.97;99.12
70166;SHT30;57541;47.408;18.822;2024-01-30T01:25:07;-3.01;99.24
70166;SHT30;57541;47.408;18.822;2024-01-30T01:25:40;-3.01;99.31
70166;SHT30;57541;47.408;18.822;2024-01-30T01:26:11;-3.09;99.50
70166;SHT30;57541;47.408;18.822;2024-01-30T01:26:43;-3.02;99.65
70166;SHT30;57541;47.408;18.822;2024-01-30T01:27:15;-3.11;99.75
70166;SHT30;57541;47.408;18.822;2024-01-30T01:27:47;-3.12;99.99
70166;SHT30;57541;47.408;18.822;2024-01-30T01:28:23;-3.15;99.99
70166;SHT30;57541;47.408;18.822;2024-01-30T01:28:55;-3.12;99.99
70166;SHT30;57541;47.408;18.822;2024-01-30T01:29:27;-3.07;99.99
70166;SHT30;57541;47.408;18.822;2024-01-30T01:30:00;-3.02;99.76
70166;SHT30;57541;47.408;18.822;2024-01-30T01:30:32;-2.95;99.47
70166;SHT30;57541;47.408;18.822;2024-01-30T01:31:04;-3.01;99.35
70166;SHT30;57541;47.408;18.822;2024-01-30T01:31:37;-2.93;99.50
70166;SHT30;57541;47.408;18.822;2024-01-30T01:32:15;-3.00;99.23
70166;SHT30;57541;47.408;18.822;2024-01-30T01:32:48;-3.08;99.14
70166;SHT30;57541;47.408;18.822;2024-01-30T01:33:27;-3.07;99.55
70166;SHT30;57541;47.408;18.822;2024-01-30T01:33:58;-2.97;99.68
70166;SHT30;57541;47.408;18.822;2024-01-30T01:34:31;-3.08;99.66
70166;SHT30;57541;47.408;18.822;2024-01-30T01:35:03;-3.02;99.74
70166;SHT30;57541;47.408;18.822;2024-01-30T01:35:37;-2.97;99.69
70166;SHT30;57541;47.408;18.822;2024-01-30T01:36:09;-3.02;99.74
70166;SHT30;57541;47.408;18.822;2024-01-30T01:36:40;-3.07;99.77
70166;SHT30;57541;47.408;18.822;2024-01-30T01:37:12;-3.01;99.87
70166;SHT30;57541;47.408;18.822;2024-01-30T01:37:44;-3.07;99.96
70166;SHT30;57541;47.408;18.822;2024-01-30T01:38:16;-3.09;99.99
70166;SHT30;57541;47.408;18.822;2024-01-30T01:38:48;-3.08;99.99
70166;SHT30;57541;47.408;18.822;2024-01-30T01:39:20;-3.08;99.99
70166;SHT30;57541;47.408;18.822;2024-01-30T01:39:52;-3.15;99.99
70166;SHT30;57541;47.408;18.822;2024-01-30T01:40:24;-3.15;99.99
70166;SHT30;57541;47.408;18.822;2024-01-30T01:40:56;-3.14;99.99
70166;SHT30;57541;47.408;18.822;2024-01-30T01:41:32;-3.04;99.99
70166;SHT30;57541;47.408;18.822;2024-01-30T01:42:04;-3.00;99.99
70166;SHT30;57541;47.408;18.822;2024-01-30T01:42:35;-3.04;99.95
70166;SHT30;57541;47.408;18.822;2024-01-30T01:43:07;-2.95;99.92
70166;SHT30;57541;47.408;18.822;2024-01-30T01:43:39;-2.97;99.71
70166;SHT30;57541;47.408;18.822;2024-01-30T01:44:11;-3.04;99.51
70166;SHT30;57541;47.408;18.822;2024-01-30T01:44:43;-3.00;99.67
70166;SHT30;57541;47.408;18.822;2024-01-30T01:45:14;-2.95;99.76
70166;SHT30;57541;47.408;18.822;2024-01-30T01:45:47;-2.91;99.59
70166;SHT30;57541;47.408;18.822;2024-01-30T01:46:19;-2.91;99.38
70166;SHT30;57541;47.408;18.822;2024-01-30T01:46:51;-2.95;99.48
70166;SHT30;57541;47.408;18.822;2024-01-30T01:47:24;-2.95;99.88
70166;SHT30;57541;47.408;18.822;2024-01-30T01:47:55;-2.87;99.75
70166;SHT30;57541;47.408;18.822;2024-01-30T01:48:29;-2.85;99.37
70166;SHT30;57541;47.408;18.822;2024-01-30T01:49:02;-2.98;99.22
70166;SHT30;57541;47.408;18.822;2024-01-30T01:49:34;-2.85;99.42
70166;SHT30;57541;47.408;18.822;2024-01-30T01:50:06;-2.84;99.22
70166;SHT30;57541;47.408;18.822;2024-01-30T01:50:39;-2.80;99.04
70166;SHT30;57541;47.408;18.822;2024-01-30T01:51:11;-2.80;98.90
70166;SHT30;57541;47.408;18.822;2024-01-30T01:51:44;-2.81;98.86
70166;SHT30;57541;47.408;18.822;2024-01-30T01:52:17;-2.88;98.78
70166;SHT30;57541;47.408;18.822;2024-01-30T01:52:50;-2.94;99.00
70166;SHT30;57541;47.408;18.822;2024-01-30T01:53:22;-2.88;99.24
70166;SHT30;57541;47.408;18.822;2024-01-30T01:53:55;-2.83;99.30
70166;SHT30;57541;47.408;18.822;2024-01-30T01:54:28;-2.80;99.14
70166;SHT30;57541;47.408;18.822;2024-01-30T01:55:00;-2.83;99.03
70166;SHT30;57541;47.408;18.822;2024-01-30T01:55:32;-2.77;99.05
70166;SHT30;57541;47.408;18.822;2024-01-30T01:56:05;-2.76;98.96
70166;SHT30;57541;47.408;18.822;2024-01-30T01:56:37;-2.76;98.63
70166;SHT30;57541;47.408;18.822;2024-01-30T01:57:10;-3.01;98.71
70166;SHT30;57541;47.408;18.822;2024-01-30T01:57:42;-3.00;99.15
70166;SHT30;57541;47.408;18.822;2024-01-30T01:58:14;-2.98;99.45
70166;SHT30;57541;47.408;18.822;2024-01-30T01:58:47;-2.91;99.54
70166;SHT30;57541;47.408;18.822;2024-01-30T01:59:22;-3.00;99.13
70166;SHT30;57541;47.408;18.822;2024-01-30T01:59:55;-3.07;99.09
70166;SHT30;57541;47.408;18.822;2024-01-30T02:00:27;-3.16;99.29
70166;SHT30;57541;47.408;18.822;2024-01-30T02:01:00;-3.00;99.53
70166;SHT30;57541;47.408;18.822;2024-01-30T02:01:32;-2.98;99.38
70166;SHT30;57541;47.408;18.822;2024-01-30T02:02:05;-2.93;99.18
70166;SHT30;57541;47.408;18.822;2024-01-30T02:02:39;-2.90;98.86
70166;SHT30;57541;47.408;18.822;2024-01-30T02:03:13;-2.85;98.76
70166;SHT30;57541;47.408;18.822;2024-01-30T02:03:46;-2.93;98.81
70166;SHT30;57541;47.408;18.822;2024-01-30T02:04:18;-2.87;98.93
70166;SHT30;57541;47.408;18.822;2024-01-30T02:04:50;-2.87;98.82
70166;SHT30;57541;47.408;18.822;2024-01-30T02:05:22;-3.08;98.79
70166;SHT30;57541;47.408;18.822;2024-01-30T02:05:55;-3.24;99.14
70166;SHT30;57541;47.408;18.822;2024-01-30T02:06:27;-3.16;99.38
70166;SHT30;57541;47.408;18.822;2024-01-30T02:06:59;-3.16;99.66
70166;SHT30;57541;47.408;18.822;2024-01-30T02:07:31;-3.12;99.69
70166;SHT30;57541;47.408;18.822;2024-01-30T02:08:03;-3.01;99.50
70166;SHT30;57541;47.408;18.822;2024-01-30T02:08:37;-3.00;99.44
70166;SHT30;57541;47.408;18.822;2024-01-30T02:09:09;-3.02;99.03
70166;SHT30;57541;47.408;18.822;2024-01-30T02:09:41;-3.04;98.99
70166;SHT30;57541;47.408;18.822;2024-01-30T02:10:13;-3.04;99.24
70166;SHT30;57541;47.408;18.822;2024-01-30T02:10:45;-3.04;99.22
70166;SHT30;57541;47.408;18.822;2024-01-30T02:11:17;-3.11;99.36
70166;SHT30;57541;47.408;18.822;2024-01-30T02:11:50;-3.14;99.63
70166;SHT30;57541;47.408;18.822;2024-01-30T02:12:22;-3.18;99.30
70166;SHT30;57541;47.408;18.822;2024-01-30T02:12:53;-3.16;99.27
70166;SHT30;57541;47.408;18.822;2024-01-30T02:13:25;-3.12;99.31
70166;SHT30;57541;47.408;18.822;2024-01-30T02:14:02;-3.12;99.34
70166;SHT30;57541;47.408;18.822;2024-01-30T02:14:44;-3.27;99.64
70166;SHT30;57541;47.408;18.822;2024-01-30T02:15:16;-3.21;99.92
70166;SHT30;57541;47.408;18.822;2024-01-30T02:15:51;-3.09;99.78
70166;SHT30;57541;47.408;18.822;2024-01-30T02:16:23;-3.14;99.71
70166;SHT30;57541;47.408;18.822;2024-01-30T02:16:55;-3.11;99.78
70166;SHT30;57541;47.408;18.822;2024-01-30T02:17:27;-3.14;99.60
70166;SHT30;57541;47.408;18.822;2024-01-30T02:17:58;-3.09;99.47
70166;SHT30;57541;47.408;18.822;2024-01-30T02:18:30;-3.14;99.25
70166;SHT30;57541;47.408;18.822;2024-01-30T02:19:02;-3.08;99.28
70166;SHT30;57541;47.408;18.822;2024-01-30T02:19:34;-3.25;99.19
70166;SHT30;57541;47.408;18.822;2024-01-30T02:20:06;-3.28;99.31
70166;SHT30;57541;47.408;18.822;2024-01-30T02:20:38;-3.30;99.55
70166;SHT30;57541;47.408;18.822;2024-01-30T02:21:11;-3.39;99.33
70166;SHT30;57541;47.408;18.822;2024-01-30T02:21:43;-3.38;99.36
70166;SHT30;57541;47.408;18.822;2024-01-30T02:22:16;-3.36;99.28
70166;SHT30;57541;47.408;18.822;2024-01-30T02:22:48;-3.36;99.27
70166;SHT30;57541;47.408;18.822;2024-01-30T02:23:20;-3.36;99.22
70166;SHT30;57541;47.408;18.822;2024-01-30T02:23:54;-3.32;99.39
70166;SHT30;57541;47.408;18.822;2024-01-30T02:24:26;-3.31;99.41
70166;SHT30;57541;47.408;18.822;2024-01-30T02:24:58;-3.35;99.40
70166;SHT30;57541;47.408;18.822;2024-01-30T02:25:39;-3.48;99.40
70166;SHT30;57541;47.408;18.822;2024-01-30T02:26:15;-3.51;99.58
70166;SHT30;57541;47.408;18.822;2024-01-30T02:26:47;-3.48;99.59
70166;SHT30;57541;47.408;18.822;2024-01-30T02:27:19;-3.41;99.46
70166;SHT30;57541;47.408;18.822;2024-01-30T02:27:51;-3.36;99.43
70166;SHT30;57541;47.408;18.822;2024-01-30T02:28:23;-3.30;99.28
70166;SHT30;57541;47.408;18.822;2024-01-30T02:28:55;-3.32;98.94
70166;SHT30;57541;47.408;18.822;2024-01-30T02:29:26;-3.27;98.92
70166;SHT30;57541;47.408;18.822;2024-01-30T02:29:58;-3.32;98.86
70166;SHT30;57541;47.408;18.822;2024-01-30T02:30:30;-3.32;98.87
70166;SHT30;57541;47.408;18.822;2024-01-30T02:31:02;-3.30;98.95
70166;SHT30;57541;47.408;18.822;2024-01-30T02:31:34;-3.30;98.79
70166;SHT30;57541;47.408;18.822;2024-01-30T02:32:06;-3.25;98.90
70166;SHT30;57541;47.408;18.822;2024-01-30T02:32:41;-3.28;98.50
70166;SHT30;57541;47.408;18.822;2024-01-30T02:33:13;-3.28;98.54
70166;SHT30;57541;47.408;18.822;2024-01-30T02:33:45;-3.28;98.73
70166;SHT30;57541;47.408;18.822;2024-01-30T02:34:16;-3.27;98.78
70166;SHT30;57541;47.408;18.822;2024-01-30T02:34:48;-3.25;98.86
70166;SHT30;57541;47.408;18.822;2024-01-30T02:35:20;-3.14;98.83
70166;SHT30;57541;47.408;18.822;2024-01-30T02:35:52;-3.14;98.69
70166;SHT30;57541;47.408;18.822;2024-01-30T02:36:24;-3.15;98.77
70166;SHT30;57541;47.408;18.822;2024-01-30T02:36:56;-3.16;98.84
70166;SHT30;57541;47.408;18.822;2024-01-30T02:37:28;-3.21;98.92
70166;SHT30;57541;47.408;18.822;2024-01-30T02:38:00;-3.16;98.97
70166;SHT30;57541;47.408;18.822;2024-01-30T02:38:31;-3.11;98.83
70166;SHT30;57541;47.408;18.822;2024-01-30T02:39:03;-3.04;98.80
70166;SHT30;57541;47.408;18.822;2024-01-30T02:39:35;-3.15;98.48
70166;SHT30;57541;47.408;18.822;2024-01-30T02:40:07;-3.25;98.48
70166;SHT30;57541;47.408;18.822;2024-01-30T02:40:39;-3.14;98.75
70166;SHT30;57541;47.408;18.822;2024-01-30T02:41:11;-3.19;98.86
70166;SHT30;57541;47.408;18.822;2024-01-30T02:41:43;-3.18;98.93
70166;SHT30;57541;47.408;18.822;2024-01-30T02:42:14;-3.31;99.06
70166;SHT30;57541;47.408;18.822;2024-01-30T02:42:46;-3.35;99.52
70166;SHT30;57541;47.408;18.822;2024-01-30T02:43:18;-3.28;99.71
70166;SHT30;57541;47.408;18.822;2024-01-30T02:43:50;-3.28;99.70
70166;SHT30;57541;47.408;18.822;2024-01-30T02:44:22;-3.22;99.76
70166;SHT30;57541;47.408;18.822;2024-01-30T02:44:54;-3.28;99.60
70166;SHT30;57541;47.408;18.822;2024-01-30T02:45:25;-3.42;99.21
70166;SHT30;57541;47.408;18.822;2024-01-30T02:45:57;-3.56;99.52
70166;SHT30;57541;47.408;18.822;2024-01-30T02:46:31;-3.42;99.65
70166;SHT30;57541;47.408;18.822;2024-01-30T02:47:03;-3.41;99.69
70166;SHT30;57541;47.408;18.822;2024-01-30T02:47:35;-3.46;99.83
70166;SHT30;57541;47.408;18.822;2024-01-30T02:48:07;-3.36;99.65
70166;SHT30;57541;47.408;18.822;2024-01-30T02:48:38;-3.46;99.33
70166;SHT30;57541;47.408;18.822;2024-01-30T02:49:10;-3.52;99.39
70166;SHT30;57541;47.408;18.822;2024-01-30T02:49:42;-3.53;99.38
70166;SHT30;57541;47.408;18.822;2024-01-30T02:50:14;-3.48;99.51
70166;SHT30;57541;47.408;18.822;2024-01-30T02:50:48;-3.53;99.60
70166;SHT30;57541;47.408;18.822;2024-01-30T02:51:20;-3.41;99.71
70166;SHT30;57541;47.408;18.822;2024-01-30T02:51:53;-3.36;99.34
70166;SHT30;57541;47.408;18.822;2024-01-30T02:52:25;-3.21;99.20
70166;SHT30;57541;47.408;18.822;2024-01-30T02:52:57;-3.09;99.10
70166;SHT30;57541;47.408;18.822;2024-01-30T02:53:29;-3.04;98.77
70166;SHT30;57541;47.408;18.822;2024-01-30T02:54:00;-2.97;98.32
70166;SHT30;57541;47.408;18.822;2024-01-30T02:54:32;-2.88;98.10
70166;SHT30;57541;47.408;18.822;2024-01-30T02:55:04;-2.97;97.95
70166;SHT30;57541;47.408;18.822;2024-01-30T02:55:36;-2.97;98.01
70166;SHT30;57541;47.408;18.822;2024-01-30T02:56:08;-3.02;98.18
70166;SHT30;57541;47.408;18.822;2024-01-30T02:56:41;-2.91;98.52
70166;SHT30;57541;47.408;18.822;2024-01-30T02:57:13;-2.94;98.26
70166;SHT30;57541;47.408;18.822;2024-01-30T02:57:45;-2.94;98.13
70166;SHT30;57541;47.408;18.822;2024-01-30T02:58:17;-2.91;98.23
70166;SHT30;57541;47.408;18.822;2024-01-30T02:58:49;-2.90;98.27
70166;SHT30;57541;47.408;18.822;2024-01-30T02:59:20;-2.97;98.22
70166;SHT30;57541;47.408;18.822;2024-01-30T02:59:52;-3.21;98.51
70166;SHT30;57541;47.408;18.822;2024-01-30T03:00:24;-3.05;98.88
70166;SHT30;57541;47.408;18.822;2024-01-30T03:00:56;-3.11;98.68
70166;SHT30;57541;47.408;18.822;2024-01-30T03:01:28;-3.14;98.69
70166;SHT30;57541;47.408;18.822;2024-01-30T03:02:00;-3.09;98.93
70166;SHT30;57541;47.408;18.822;2024-01-30T03:02:32;-3.19;98.85
70166;SHT30;57541;47.408;18.822;2024-01-30T03:03:04;-3.11;99.14
70166;SHT30;57541;47.408;18.822;2024-01-30T03:03:36;-3.01;99.22
70166;SHT30;57541;47.408;18.822;2024-01-30T03:04:08;-2.94;99.32
70166;SHT30;57541;47.408;18.822;2024-01-30T03:04:43;-2.95;99.25
70166;SHT30;57541;47.408;18.822;2024-01-30T03:05:15;-3.04;99.08
70166;SHT30;57541;47.408;18.822;2024-01-30T03:05:47;-3.01;98.96
70166;SHT30;57541;47.408;18.822;2024-01-30T03:06:18;-3.07;98.78
70166;SHT30;57541;47.408;18.822;2024-01-30T03:06:51;-3.22;98.81
70166;SHT30;57541;47.408;18.822;2024-01-30T03:07:23;-3.32;99.14
70166;SHT30;57541;47.408;18.822;2024-01-30T03:07:55;-3.28;99.34
70166;SHT30;57541;47.408;18.822;2024-01-30T03:08:27;-3.18;99.25
70166;SHT30;57541;47.408;18.822;2024-01-30T03:08:59;-3.24;98.85
70166;SHT30;57541;47.408;18.822;2024-01-30T03:09:31;-3.30;98.66
70166;SHT30;57541;47.408;18.822;2024-01-30T03:10:06;-3.30;98.83
70166;SHT30;57541;47.408;18.822;2024-01-30T03:10:38;-3.27;99.07
70166;SHT30;57541;47.408;18.822;2024-01-30T03:11:10;-3.21;99.23
70166;SHT30;57541;47.408;18.822;2024-01-30T03:11:41;-3.30;99.19
70166;SHT30;57541;47.408;18.822;2024-01-30T03:12:13;-3.25;99.31
70166;SHT30;57541;47.408;18.822;2024-01-30T03:12:45;-3.22;98.87
70166;SHT30;57541;47.408;18.822;2024-01-30T03:13:17;-3.22;98.75
70166;SHT30;57541;47.408;18.822;2024-01-30T03:13:49;-3.18;98.64
70166;SHT30;57541;47.408;18.822;2024-01-30T03:14:21;-3.25;98.48
70166;SHT30;57541;47.408;18.822;2024-01-30T03:14:53;-3.25;98.53
70166;SHT30;57541;47.408;18.822;2024-01-30T03:15:24;-3.34;98.84
70166;SHT30;57541;47.408;18.822;2024-01-30T03:15:56;-3.38;99.26
70166;SHT30;57541;47.408;18.822;2024-01-30T03:16:28;-3.27;99.60
70166;SHT30;57541;47.408;18.822;2024-01-30T03:17:00;-3.18;99.52
70166;SHT30;57541;47.408;18.822;2024-01-30T03:17:32;-3.19;99.53
70166;SHT30;57541;47.408;18.822;2024-01-30T03:18:04;-3.18;99.45
70166;SHT30;57541;47.408;18.822;2024-01-30T03:18:36;-3.16;99.46
70166;SHT30;57541;47.408;18.822;2024-01-30T03:19:08;-3.12;99.45
70166;SHT30;57541;47.408;18.822;2024-01-30T03:19:41;-3.05;99.27
70166;SHT30;57541;47.408;18.822;2024-01-30T03:20:13;-3.07;99.24
70166;SHT30;57541;47.408;18.822;2024-01-30T03:20:45;-2.97;99.51